createdAt,value
2022-07-30T00:00:25.176Z,98299.88
2022-07-30T00:02:52.984Z,98288.81
2022-07-30T00:05:20.187Z,98294.03
2022-07-30T00:07:47.739Z,98287.16
2022-07-30T00:10:14.923Z,98285.22
2022-07-30T00:12:42.612Z,98289.09
2022-07-30T00:15:10.228Z,98283.28
2022-07-30T00:17:37.555Z,98283.28
2022-07-30T00:20:05.180Z,98284.91
2022-07-30T00:22:32.522Z,98284.91
2022-07-30T00:24:59.852Z,98287.69
2022-07-30T00:27:27.355Z,98277.22
2022-07-30T00:29:54.488Z,98279.69
2022-07-30T00:32:22.207Z,98274.97
2022-07-30T00:34:49.377Z,98280.50
2022-07-30T00:37:16.624Z,98271.38
2022-07-30T00:39:44.552Z,98273.03
2022-07-30T00:42:11.656Z,98266.94
2022-07-30T00:44:41.152Z,98272.81
2022-07-30T00:47:08.251Z,98276.09
2022-07-30T00:49:35.443Z,98264.81
2022-07-30T00:52:02.527Z,98270.53
2022-07-30T00:54:29.548Z,98272.50
2022-07-30T00:56:56.569Z,98269.72
2022-07-30T00:59:23.587Z,98260.91
2022-07-30T01:01:51.255Z,98259.78
2022-07-30T01:04:18.284Z,98254.56
2022-07-30T01:06:45.322Z,98247.91
2022-07-30T01:09:12.734Z,98234.66
2022-07-30T01:11:41.090Z,98245.13
2022-07-30T01:14:08.853Z,98233.22
2022-07-30T01:16:37.973Z,98230.75
2022-07-30T01:19:26.562Z,98234.34
2022-07-30T01:22:04.192Z,98225.22
2022-07-30T01:24:35.821Z,98214.16
2022-07-30T01:27:03.199Z,98202.25
2022-07-30T01:29:32.194Z,98204.19
2022-07-30T01:32:00.540Z,98206.97
2022-07-30T01:34:32.096Z,98210.88
2022-07-30T01:36:59.438Z,98207.78
2022-07-30T01:39:27.352Z,98209.44
2022-07-30T01:41:55.186Z,98194.88
2022-07-30T01:44:23.584Z,98198.66
2022-07-30T01:46:51.104Z,98196.50
2022-07-30T01:49:20.151Z,98190.97
2022-07-30T01:51:47.538Z,98185.44
2022-07-30T01:54:14.567Z,98194.28
2022-07-30T01:56:41.706Z,98194.28
2022-07-30T01:59:08.675Z,98190.34
2022-07-30T02:01:35.725Z,98181.56
2022-07-30T02:04:02.898Z,98162.19
2022-07-30T02:06:33.478Z,98161.66
2022-07-30T02:09:10.736Z,98173.53
2022-07-30T02:12:00.506Z,98181.56
2022-07-30T02:14:34.716Z,98182.66
2022-07-30T02:17:02.682Z,98173.25
2022-07-30T02:19:34.222Z,98185.44
2022-07-30T02:22:08.542Z,98182.66
2022-07-30T02:24:37.857Z,98188.53
2022-07-30T02:27:09.003Z,98182.78
2022-07-30T02:29:36.230Z,98184.94
2022-07-30T02:32:06.139Z,98196.03
2022-07-30T02:34:33.764Z,98196.84
2022-07-30T02:37:01.006Z,98196.31
2022-07-30T02:39:28.825Z,98203.50
2022-07-30T02:41:55.810Z,98199.91
2022-07-30T02:44:22.820Z,98200.41
2022-07-30T02:46:49.920Z,98202.69
2022-07-30T02:49:17.125Z,98195.19
2022-07-30T02:51:44.483Z,98189.94
2022-07-30T02:54:12.626Z,98199.91
2022-07-30T02:56:39.788Z,98196.03
2022-07-30T02:59:06.818Z,98194.38
2022-07-30T03:01:33.988Z,98183.28
2022-07-30T03:04:01.309Z,98186.06
2022-07-30T03:06:28.355Z,98190.78
2022-07-30T03:08:55.316Z,98192.72
2022-07-30T03:11:25.225Z,98191.06
2022-07-30T03:13:52.200Z,98180.81
2022-07-30T03:16:20.164Z,98178.88
2022-07-30T03:18:47.209Z,98170.09
2022-07-30T03:21:14.221Z,98173.66
2022-07-30T03:23:41.241Z,98166.16
2022-07-30T03:26:08.932Z,98176.13
2022-07-30T03:28:38.142Z,98176.41
2022-07-30T03:31:05.679Z,98163.41
2022-07-30T03:33:38.678Z,98161.78
2022-07-30T03:36:07.213Z,98162.91
2022-07-30T03:38:36.047Z,98166.16
2022-07-30T03:41:03.103Z,98156.53
2022-07-30T03:43:33.127Z,98155.72
2022-07-30T03:46:01.478Z,98159.31
2022-07-30T03:48:28.534Z,98169.56
2022-07-30T03:50:55.565Z,98172.31
2022-07-30T03:53:25.220Z,98177.34
2022-07-30T03:55:55.275Z,98182.88
2022-07-30T03:58:22.339Z,98194.75
2022-07-30T04:00:50.116Z,98188.72
2022-07-30T04:03:27.166Z,98194.47
2022-07-30T04:05:54.247Z,98201.94
2022-07-30T04:08:21.273Z,98195.59
2022-07-30T04:10:49.070Z,98192.81
2022-07-30T04:13:16.116Z,98192.00
2022-07-30T04:16:04.958Z,98189.22
2022-07-30T04:18:41.104Z,98195.09
2022-07-30T04:21:08.377Z,98197.84
2022-07-30T04:24:04.542Z,98193.94
2022-07-30T04:26:33.090Z,98198.97
2022-07-30T04:29:00.416Z,98196.22
2022-07-30T04:31:28.518Z,98186.78
2022-07-30T04:33:55.581Z,98175.19
2022-07-30T04:36:25.928Z,98185.44
2022-07-30T04:38:52.889Z,98189.03
2022-07-30T04:41:19.887Z,98189.31
2022-07-30T04:43:46.851Z,98196.50
2022-07-30T04:46:14.582Z,98195.38
2022-07-30T04:48:41.683Z,98195.19
2022-07-30T04:51:27.078Z,98195.19
2022-07-30T04:53:54.379Z,98197.13
2022-07-30T04:56:21.695Z,98196.31
2022-07-30T04:58:48.873Z,98194.16
2022-07-30T05:01:18.906Z,98185.84
2022-07-30T05:03:46.518Z,98199.38
2022-07-30T05:06:14.184Z,98192.72
2022-07-30T05:08:41.183Z,98197.94
2022-07-30T05:11:12.535Z,98201.00
2022-07-30T05:13:42.527Z,98209.03
2022-07-30T05:16:13.444Z,98205.72
2022-07-30T05:18:40.678Z,98202.66
2022-07-30T05:21:07.835Z,98199.91
2022-07-30T05:23:35.088Z,98199.59
2022-07-30T05:26:02.278Z,98189.66
2022-07-30T05:28:29.500Z,98189.66
2022-07-30T05:30:56.807Z,98194.06
2022-07-30T05:33:40.874Z,98194.34
2022-07-30T05:36:09.452Z,98195.69
2022-07-30T05:38:36.493Z,98188.53
2022-07-30T05:41:03.547Z,98195.69
2022-07-30T05:43:30.639Z,98200.63
2022-07-30T05:45:57.759Z,98204.31
2022-07-30T05:48:24.881Z,98200.91
2022-07-30T05:50:52.048Z,98208.09
2022-07-30T05:53:19.046Z,98196.50
2022-07-30T05:55:46.038Z,98203.41
2022-07-30T05:58:13.085Z,98208.59
2022-07-30T06:00:41.309Z,98205.00
2022-07-30T06:03:08.303Z,98207.28
2022-07-30T06:05:35.401Z,98205.94
2022-07-30T06:08:02.501Z,98200.63
2022-07-30T06:10:29.587Z,98202.88
2022-07-30T06:12:56.940Z,98203.41
2022-07-30T06:15:26.078Z,98200.63
2022-07-30T06:18:01.373Z,98203.69
2022-07-30T06:20:29.649Z,98203.41
2022-07-30T06:22:56.702Z,98205.34
2022-07-30T06:25:23.881Z,98201.44
2022-07-30T06:27:50.898Z,98198.97
2022-07-30T06:30:17.909Z,98196.22
2022-07-30T06:32:48.725Z,98202.25
2022-07-30T06:35:15.944Z,98194.47
2022-07-30T06:38:00.810Z,98190.56
2022-07-30T06:40:30.223Z,98186.97
2022-07-30T06:42:57.223Z,98191.41
2022-07-30T06:45:24.228Z,98184.72
2022-07-30T06:47:58.771Z,98187.47
2022-07-30T06:50:26.498Z,98187.47
2022-07-30T06:52:53.662Z,98180.00
2022-07-30T06:55:20.642Z,98173.16
2022-07-30T06:57:47.678Z,98169.56
2022-07-30T07:00:14.932Z,98173.66
2022-07-30T07:02:43.050Z,98165.13
2022-07-30T07:05:10.347Z,98168.44
2022-07-30T07:07:42.387Z,98169.25
2022-07-30T07:10:11.545Z,98158.47
2022-07-30T07:12:38.542Z,98165.97
2022-07-30T07:15:06.270Z,98166.16
2022-07-30T07:17:33.263Z,98162.28
2022-07-30T07:20:02.654Z,98160.94
2022-07-30T07:22:29.996Z,98162.28
2022-07-30T07:24:57.089Z,98155.09
2022-07-30T07:27:24.195Z,98159.50
2022-07-30T07:30:01.284Z,98158.38
2022-07-30T07:32:35.717Z,98150.38
2022-07-30T07:35:02.869Z,98156.72
2022-07-30T07:37:31.074Z,98146.50
2022-07-30T07:39:58.099Z,98144.03
2022-07-30T07:42:25.232Z,98144.84
2022-07-30T07:44:52.258Z,98157.75
2022-07-30T07:47:19.271Z,98150.38
2022-07-30T07:49:46.414Z,98154.50
2022-07-30T07:52:14.884Z,98162.47
2022-07-30T07:54:42.316Z,98169.66
2022-07-30T07:57:10.370Z,98163.00
2022-07-30T07:59:40.604Z,98164.66
2022-07-30T08:02:08.669Z,98159.91
2022-07-30T08:04:36.277Z,98159.91
2022-07-30T08:07:04.042Z,98157.13
2022-07-30T08:09:43.582Z,98160.22
2022-07-30T08:12:12.420Z,98157.66
2022-07-30T08:14:39.646Z,98160.44
2022-07-30T08:17:07.166Z,98155.19
2022-07-30T08:19:34.579Z,98137.25
2022-07-30T08:22:01.586Z,98140.53
2022-07-30T08:24:28.573Z,98130.78
2022-07-30T08:26:55.562Z,98131.63
2022-07-30T08:29:22.607Z,98127.19
2022-07-30T08:31:49.616Z,98122.78
2022-07-30T08:34:16.717Z,98126.09
2022-07-30T08:36:43.795Z,98121.88
2022-07-30T08:39:10.794Z,98122.97
2022-07-30T08:41:37.940Z,98115.84
2022-07-30T08:44:28.736Z,98125.44
2022-07-30T08:46:56.580Z,98114.69
2022-07-30T08:49:23.768Z,98117.16
2022-07-30T08:51:51.451Z,98114.09
2022-07-30T08:54:18.899Z,98115.50
2022-07-30T08:56:46.074Z,98103.31
2022-07-30T08:59:13.097Z,98104.44
2022-07-30T09:01:40.119Z,98111.91
2022-07-30T09:04:07.160Z,98102.47
2022-07-30T09:06:34.185Z,98103.81
2022-07-30T09:09:01.941Z,98095.81
2022-07-30T09:11:28.936Z,98105.44
2022-07-30T09:13:55.920Z,98095.81
2022-07-30T09:16:24.543Z,98093.88
2022-07-30T09:18:52.227Z,98099.13
2022-07-30T09:21:21.792Z,98099.91
2022-07-30T09:24:05.787Z,98096.88
2022-07-30T09:26:36.314Z,98100.97
2022-07-30T09:29:25.480Z,98104.34
2022-07-30T09:32:00.971Z,98100.47
2022-07-30T09:34:29.332Z,98105.38
2022-07-30T09:37:00.334Z,98099.34
2022-07-30T09:39:40.309Z,98097.06
2022-07-30T09:42:23.509Z,98101.47
2022-07-30T09:47:45.090Z,98094.81
2022-07-30T09:50:18.074Z,98081.28
2022-07-30T09:53:06.943Z,98086.22
2022-07-30T09:55:35.606Z,98078.69
2022-07-30T09:58:08.135Z,98075.63
2022-07-30T10:00:36.068Z,98066.81
2022-07-30T10:03:21.827Z,98066.50
2022-07-30T10:06:03.627Z,98058.72
2022-07-30T10:08:48.130Z,98061.97
2022-07-30T10:11:25.785Z,98054.00
2022-07-30T10:14:03.943Z,98050.88
2022-07-30T10:16:31.044Z,98055.31
2022-07-30T10:19:01.261Z,98051.41
2022-07-30T10:21:28.702Z,98050.28
2022-07-30T10:23:59.692Z,98049.66
2022-07-30T10:26:27.181Z,98045.56
2022-07-30T10:28:54.216Z,98047.19
2022-07-30T10:31:46.886Z,98052.94
2022-07-30T10:34:08.346Z,98042.66
2022-07-30T10:36:47.868Z,98052.94
2022-07-30T10:39:20.937Z,98051.78
2022-07-30T10:41:48.478Z,98056.19
2022-07-30T10:44:47.287Z,98061.72
2022-07-30T10:47:16.610Z,98049.00
2022-07-30T10:49:50.390Z,98047.41
2022-07-30T10:52:44.002Z,98049.00
2022-07-30T10:55:18.428Z,98047.41
2022-07-30T10:58:08.063Z,98049.00
2022-07-30T11:00:55.222Z,98047.06
2022-07-30T11:03:41.701Z,98044.94
2022-07-30T11:06:15.436Z,98045.41
2022-07-30T11:08:43.737Z,98031.38
2022-07-30T11:12:00.099Z,98028.00
2022-07-30T11:14:09.685Z,98034.69
2022-07-30T11:16:37.212Z,98036.31
2022-07-30T11:22:26.868Z,98054.56
2022-07-30T11:24:54.146Z,98051.59
2022-07-30T11:27:46.106Z,98054.88
2022-07-30T11:30:18.949Z,98058.78
2022-07-30T11:32:48.916Z,98047.19
2022-07-30T11:35:23.741Z,98044.09
2022-07-30T11:38:00.837Z,98041.34
2022-07-30T11:40:30.961Z,98038.06
2022-07-30T11:43:34.783Z,98046.34
2022-07-30T11:46:18.247Z,98048.63
2022-07-30T11:48:58.049Z,98047.81
2022-07-30T11:51:25.416Z,98057.44
2022-07-30T11:54:05.489Z,98057.44
2022-07-30T11:56:33.513Z,98064.63
2022-07-30T11:59:04.726Z,98070.16
2022-07-30T12:01:31.875Z,98068.50
2022-07-30T12:04:04.112Z,98066.91
2022-07-30T12:06:32.386Z,98065.75
2022-07-30T12:08:59.473Z,98062.97
2022-07-30T12:11:32.732Z,98073.25
2022-07-30T12:14:01.903Z,98077.97
2022-07-30T12:16:31.047Z,98076.81
2022-07-30T12:19:09.638Z,98076.34
2022-07-30T12:21:36.968Z,98087.41
2022-07-30T12:24:13.931Z,98079.41
2022-07-30T12:26:41.001Z,98085.28
2022-07-30T12:29:13.899Z,98086.59
2022-07-30T12:31:41.554Z,98083.28
2022-07-30T12:34:24.986Z,98074.38
2022-07-30T12:36:52.054Z,98069.97
2022-07-30T12:39:20.795Z,98067.50
2022-07-30T12:41:49.253Z,98071.44
2022-07-30T12:44:41.543Z,98082.69
2022-07-30T12:47:24.303Z,98081.34
2022-07-30T12:49:53.293Z,98087.72
2022-07-30T12:52:28.156Z,98087.72
2022-07-30T12:58:10.330Z,98092.44
2022-07-30T13:00:51.337Z,98082.81
2022-07-30T13:03:21.762Z,98095.19
2022-07-30T13:05:50.449Z,98088.84
2022-07-30T13:08:17.649Z,98088.03
2022-07-30T13:11:00.842Z,98086.88
2022-07-30T13:13:33.067Z,98080.03
2022-07-30T13:16:01.530Z,98082.50
2022-07-30T13:18:32.214Z,98078.56
2022-07-30T13:20:59.628Z,98076.63
2022-07-30T13:23:27.781Z,98061.47
2022-07-30T13:25:54.846Z,98067.50
2022-07-30T13:28:21.889Z,98063.41
2022-07-30T13:30:48.950Z,98055.41
2022-07-30T13:33:16.137Z,98063.41
2022-07-30T13:35:44.072Z,98048.75
2022-07-30T13:38:13.762Z,98045.47
2022-07-30T13:40:42.037Z,98043.50
2022-07-30T13:43:09.062Z,98041.91
2022-07-30T13:45:36.294Z,98037.16
2022-07-30T13:48:04.349Z,98041.91
2022-07-30T13:50:31.429Z,98036.16
2022-07-30T13:53:02.333Z,98036.66
2022-07-30T13:55:30.937Z,98028.34
2022-07-30T13:57:58.183Z,98030.00
2022-07-30T14:00:25.363Z,98024.47
2022-07-30T14:02:52.428Z,98018.09
2022-07-30T14:05:19.469Z,98023.31
2022-07-30T14:07:46.465Z,98017.47
2022-07-30T14:10:13.476Z,98018.09
2022-07-30T14:12:40.577Z,98020.06
2022-07-30T14:15:09.600Z,98014.22
2022-07-30T14:17:36.756Z,98022.81
2022-07-30T14:20:04.510Z,98019.41
2022-07-30T14:22:31.518Z,98018.41
2022-07-30T14:25:01.225Z,98014.50
2022-07-30T14:27:28.265Z,98014.22
2022-07-30T14:29:55.264Z,98005.09
2022-07-30T14:32:23.422Z,98003.94
2022-07-30T14:34:50.854Z,97996.78
2022-07-30T14:37:17.888Z,97988.13
2022-07-30T14:39:44.829Z,97992.84
2022-07-30T14:42:11.877Z,97994.00
2022-07-30T14:44:38.933Z,97987.66
2022-07-30T14:47:06.388Z,98001.97
2022-07-30T14:49:33.691Z,98010.28
2022-07-30T14:52:01.275Z,97991.53
2022-07-30T14:54:28.294Z,98011.09
2022-07-30T14:56:58.441Z,98009.47
2022-07-30T14:59:27.781Z,98002.31
2022-07-30T15:01:55.804Z,97997.06
2022-07-30T15:04:23.151Z,97993.50
2022-07-30T15:06:50.143Z,97999.03
2022-07-30T15:09:18.344Z,97995.13
2022-07-30T15:12:17.697Z,97987.13
2022-07-30T15:14:32.294Z,97993.00
2022-07-30T15:17:03.973Z,97987.94
2022-07-30T15:19:32.296Z,97996.25
2022-07-30T15:22:02.413Z,97997.38
2022-07-30T15:24:30.061Z,98000.66
2022-07-30T15:26:57.155Z,97997.38
2022-07-30T15:29:24.544Z,97991.66
2022-07-30T15:31:51.938Z,98001.78
2022-07-30T15:34:19.070Z,97987.75
2022-07-30T15:36:46.140Z,97999.66
2022-07-30T15:39:13.703Z,97996.06
2022-07-30T15:41:42.671Z,97990.31
2022-07-30T15:44:09.632Z,97991.44
2022-07-30T15:46:36.652Z,97983.13
2022-07-30T15:49:03.774Z,97987.53
2022-07-30T15:51:32.358Z,97994.69
2022-07-30T15:53:59.912Z,97990.31
2022-07-30T15:56:28.439Z,97993.59
2022-07-30T15:58:55.925Z,97985.91
2022-07-30T16:01:23.207Z,97982.84
2022-07-30T16:03:50.205Z,97987.25
2022-07-30T16:06:17.253Z,97982.00
2022-07-30T16:08:44.306Z,97985.91
2022-07-30T16:11:11.412Z,97981.50
2022-07-30T16:13:38.357Z,97986.19
2022-07-30T16:16:05.528Z,97987.84
2022-07-30T16:18:32.618Z,97992.25
2022-07-30T16:21:01.436Z,97987.53
2022-07-30T16:23:36.301Z,97978.41
2022-07-30T16:26:03.979Z,97972.69
2022-07-30T16:28:31.171Z,97970.72
2022-07-30T16:30:58.234Z,97963.22
2022-07-30T16:33:25.244Z,97957.22
2022-07-30T16:35:52.283Z,97960.47
2022-07-30T16:38:23.512Z,97960.47
2022-07-30T16:40:50.531Z,97960.16
2022-07-30T16:43:19.900Z,97957.69
2022-07-30T16:45:47.439Z,97959.97
2022-07-30T16:48:14.420Z,97965.81
2022-07-30T16:50:42.040Z,97973.81
2022-07-30T16:53:13.847Z,97976.59
2022-07-30T16:55:42.389Z,97973.00
2022-07-30T16:58:09.745Z,97978.34
2022-07-30T17:00:36.868Z,97977.53
2022-07-30T17:03:03.968Z,97975.25
2022-07-30T17:05:31.070Z,97978.34
2022-07-30T17:07:58.225Z,97983.06
2022-07-30T17:10:26.473Z,97977.81
2022-07-30T17:12:54.336Z,97981.72
2022-07-30T17:15:32.489Z,97985.31
2022-07-30T17:18:01.260Z,97986.47
2022-07-30T17:20:29.056Z,97985.00
2022-07-30T17:22:56.423Z,97978.16
2022-07-30T17:25:27.698Z,97982.25
2022-07-30T17:27:55.715Z,97978.66
2022-07-30T17:30:23.592Z,97970.97
2022-07-30T17:32:51.006Z,97966.88
2022-07-30T17:35:18.164Z,97960.72
2022-07-30T17:37:45.143Z,97960.03
2022-07-30T17:40:30.567Z,97958.06
2022-07-30T17:43:04.227Z,97964.09
2022-07-30T17:45:38.438Z,97960.50
2022-07-30T17:48:05.962Z,97954.47
2022-07-30T17:50:33.335Z,97967.50
2022-07-30T17:53:03.478Z,97959.19
2022-07-30T17:55:31.253Z,97961.16
2022-07-30T17:57:58.249Z,97961.16
2022-07-30T18:00:35.508Z,97964.72
2022-07-30T18:03:03.057Z,97958.69
2022-07-30T18:05:30.148Z,97969.16
2022-07-30T18:07:57.119Z,97957.56
2022-07-30T18:10:24.273Z,97953.97
2022-07-30T18:12:51.242Z,97949.88
2022-07-30T18:15:19.043Z,97953.16
2022-07-30T18:17:46.296Z,97951.84
2022-07-30T18:20:13.487Z,97948.25
2022-07-30T18:22:40.669Z,97964.53
2022-07-30T18:25:08.195Z,97958.69
2022-07-30T18:27:46.623Z,97958.19
2022-07-30T18:30:13.900Z,97960.97
2022-07-30T18:32:43.903Z,97961.59
2022-07-30T18:35:14.456Z,97952.97
2022-07-30T18:37:42.780Z,97967.13
2022-07-30T18:40:11.120Z,97971.22
2022-07-30T18:42:38.212Z,97972.03
2022-07-30T18:45:05.550Z,97971.03
2022-07-30T18:47:32.585Z,97971.03
2022-07-30T18:49:59.736Z,97968.75
2022-07-30T18:52:26.910Z,97964.84
2022-07-30T18:54:53.980Z,97966.78
2022-07-30T18:57:21.121Z,97968.75
2022-07-30T18:59:57.442Z,97961.88
2022-07-30T19:02:25.884Z,97966.59
2022-07-30T19:04:53.671Z,97967.72
2022-07-30T19:07:20.878Z,97979.31
2022-07-30T19:09:48.403Z,97968.84
2022-07-30T19:12:15.555Z,97968.56
2022-07-30T19:14:44.773Z,97966.91
2022-07-30T19:17:14.220Z,97967.72
2022-07-30T19:19:42.587Z,97966.91
2022-07-30T19:22:09.731Z,97970.50
2022-07-30T19:24:36.770Z,97972.13
2022-07-30T19:27:06.072Z,97965.59
2022-07-30T19:29:33.113Z,97963.66
2022-07-30T19:32:00.418Z,97959.44
2022-07-30T19:34:27.792Z,97964.47
2022-07-30T19:36:54.843Z,97962.81
2022-07-30T19:39:22.203Z,97964.97
2022-07-30T19:41:50.957Z,97962.81
2022-07-30T19:44:18.719Z,97962.31
2022-07-30T19:46:46.306Z,97958.94
2022-07-30T19:49:15.730Z,97953.69
2022-07-30T19:54:30.282Z,97966.41
2022-07-30T19:56:57.439Z,97957.28
2022-07-30T19:59:45.312Z,97945.41
2022-07-30T20:02:13.559Z,97949.47
2022-07-30T20:04:40.800Z,97951.75
2022-07-30T20:07:10.862Z,97941.81
2022-07-30T20:09:39.120Z,97944.59
2022-07-30T20:12:11.084Z,97955.66
2022-07-30T20:14:38.085Z,97953.19
2022-07-30T20:17:10.404Z,97946.22
2022-07-30T20:19:38.143Z,97945.22
2022-07-30T20:22:15.175Z,97943.28
2022-07-30T20:24:42.487Z,97943.28
2022-07-30T20:27:35.380Z,97946.34
2022-07-30T20:29:56.590Z,97939.16
2022-07-30T20:32:24.915Z,97949.94
2022-07-30T20:34:52.130Z,97950.56
2022-07-30T20:37:22.537Z,97942.44
2022-07-30T20:39:49.983Z,97940.81
2022-07-30T20:42:17.061Z,97939.69
2022-07-30T20:44:50.522Z,97934.16
2022-07-30T20:47:34.923Z,97932.50
2022-07-30T20:50:09.412Z,97934.75
2022-07-30T20:52:38.090Z,97931.69
2022-07-30T20:55:14.338Z,97942.75
2022-07-30T20:57:56.907Z,97932.50
2022-07-30T21:00:28.877Z,97926.78
2022-07-30T21:02:55.896Z,97925.13
2022-07-30T21:05:22.947Z,97927.59
2022-07-30T21:07:54.322Z,97928.72
2022-07-30T21:10:23.604Z,97932.63
2022-07-30T21:12:56.447Z,97921.53
2022-07-30T21:15:33.054Z,97926.59
2022-07-30T21:18:01.802Z,97924.31
2022-07-30T21:20:30.001Z,97929.53
2022-07-30T21:23:03.080Z,97920.41
2022-07-30T21:25:32.551Z,97919.09
2022-07-30T21:28:02.626Z,97924.31
2022-07-30T21:30:31.323Z,97914.69
2022-07-30T21:32:59.851Z,97919.91
2022-07-30T21:35:31.844Z,97913.88
2022-07-30T21:37:59.473Z,97915.53
2022-07-30T21:40:27.983Z,97920.25
2022-07-30T21:42:55.881Z,97917.47
2022-07-30T21:45:23.727Z,97917.47
2022-07-30T21:47:54.687Z,97920.53
2022-07-30T21:50:21.918Z,97926.88
2022-07-30T21:52:48.998Z,97931.59
2022-07-30T21:55:16.084Z,97922.28
2022-07-30T21:57:43.420Z,97919.53
2022-07-30T22:00:15.131Z,97923.31
2022-07-30T22:02:53.302Z,97916.13
2022-07-30T22:08:09.334Z,97915.31
2022-07-30T22:10:37.470Z,97916.94
2022-07-30T22:13:09.538Z,97916.13
2022-07-30T22:15:36.556Z,97906.81
2022-07-30T22:18:04.462Z,97910.72
2022-07-30T22:20:31.850Z,97901.59
2022-07-30T22:23:00.036Z,97907.63
2022-07-30T22:25:41.670Z,97906.50
2022-07-30T22:28:11.485Z,97897.69
2022-07-30T22:30:38.648Z,97895.25
2022-07-30T22:33:13.196Z,97896.38
2022-07-30T22:35:41.257Z,97890.53
2022-07-30T22:38:14.066Z,97886.97
2022-07-30T22:40:42.797Z,97889.72
2022-07-30T22:43:12.469Z,97880.09
2022-07-30T22:45:47.903Z,97887.25
2022-07-30T22:48:16.369Z,97880.59
2022-07-30T22:50:43.878Z,97871.78
2022-07-30T22:53:56.911Z,97887.25
2022-07-30T22:55:59.336Z,97875.38
2022-07-30T22:58:26.754Z,97868.19
2022-07-30T23:00:54.228Z,97867.09
2022-07-30T23:03:21.514Z,97866.59
2022-07-30T23:05:56.259Z,97868.53
2022-07-30T23:08:29.962Z,97859.09
2022-07-30T23:10:59.981Z,97855.00
2022-07-30T23:12:17.336Z,97960.25
2022-07-30T23:12:28.193Z,97925.25
2022-07-30T23:13:27.748Z,97843.13
2022-07-30T23:15:54.769Z,97844.75
2022-07-30T23:18:21.750Z,97839.72
2022-07-30T23:20:48.734Z,97838.09
2022-07-30T23:23:15.754Z,97846.06
2022-07-30T23:25:42.775Z,97840.34
2022-07-30T23:28:09.891Z,97843.63
2022-07-30T23:30:36.920Z,97839.22
2022-07-30T23:33:04.594Z,97837.28
2022-07-30T23:35:31.603Z,97826.03
2022-07-30T23:37:58.612Z,97830.75
2022-07-30T23:40:25.667Z,97825.22
2022-07-30T23:42:52.840Z,97826.81
2022-07-30T23:45:19.845Z,97829.59
2022-07-30T23:48:01.434Z,97826.34
2022-07-30T23:50:33.487Z,97828.47
2022-07-30T23:53:01.229Z,97826.81
2022-07-30T23:55:29.197Z,97817.22
2022-07-30T23:57:56.413Z,97817.22
